createdAt,value
2019-05-16T00:00:41.840Z,0.00
2019-05-16T00:01:41.828Z,0.00
2019-05-16T00:02:41.809Z,0.00
2019-05-16T00:03:41.842Z,0.00
2019-05-16T00:04:41.811Z,0.00
2019-05-16T00:05:50.431Z,0.00
2019-05-16T00:06:42.769Z,0.00
2019-05-16T00:07:41.780Z,0.00
2019-05-16T00:08:41.754Z,0.00
2019-05-16T00:09:41.756Z,0.00
2019-05-16T00:10:41.739Z,0.00
2019-05-16T00:11:41.718Z,0.00
2019-05-16T00:12:41.711Z,0.00
2019-05-16T00:13:41.709Z,0.00
2019-05-16T00:14:41.710Z,0.00
2019-05-16T00:15:41.721Z,0.00
2019-05-16T00:16:41.679Z,0.00
2019-05-16T00:17:41.658Z,0.00
2019-05-16T00:18:41.646Z,0.00
2019-05-16T00:19:41.627Z,0.00
2019-05-16T00:20:41.651Z,0.00
2019-05-16T00:21:41.627Z,0.00
2019-05-16T00:22:41.595Z,0.00
2019-05-16T00:23:41.599Z,0.00
2019-05-16T00:24:41.576Z,0.00
2019-05-16T00:25:41.595Z,0.00
2019-05-16T00:26:41.561Z,0.00
2019-05-16T00:27:41.547Z,0.00
2019-05-16T00:28:41.542Z,0.00
2019-05-16T00:29:41.535Z,0.00
2019-05-16T00:30:41.536Z,0.00
2019-05-16T00:31:41.508Z,0.00
2019-05-16T00:32:41.496Z,0.00
2019-05-16T00:33:41.488Z,0.00
2019-05-16T00:34:41.485Z,0.00
2019-05-16T00:35:41.490Z,0.00
2019-05-16T00:36:41.455Z,0.00
2019-05-16T00:37:41.486Z,0.00
2019-05-16T00:38:41.457Z,0.00
2019-05-16T00:39:41.412Z,0.00
2019-05-16T00:40:41.418Z,0.00
2019-05-16T00:41:41.398Z,0.00
2019-05-16T00:42:41.384Z,0.00
2019-05-16T00:43:41.376Z,0.00
2019-05-16T00:44:41.784Z,0.00
2019-05-16T00:45:41.354Z,0.00
2019-05-16T00:46:41.345Z,0.00
2019-05-16T00:47:41.333Z,0.00
2019-05-16T00:48:41.321Z,0.00
2019-05-16T00:49:41.301Z,0.00
2019-05-16T00:50:41.328Z,0.00
2019-05-16T00:51:41.281Z,0.00
2019-05-16T00:52:41.289Z,0.00
2019-05-16T00:53:41.284Z,0.00
2019-05-16T00:54:41.512Z,0.00
2019-05-16T00:55:41.285Z,0.00
2019-05-16T00:56:41.225Z,0.00
2019-05-16T00:57:41.232Z,0.00
2019-05-16T00:58:41.202Z,0.00
2019-05-16T00:59:41.199Z,0.00
2019-05-16T01:00:41.207Z,0.00
2019-05-16T01:01:41.197Z,0.00
2019-05-16T01:02:41.166Z,0.00
2019-05-16T01:03:41.151Z,0.00
2019-05-16T01:04:41.149Z,0.00
2019-05-16T01:05:41.144Z,0.00
2019-05-16T01:06:41.139Z,0.00
2019-05-16T01:07:41.144Z,0.00
2019-05-16T01:08:41.092Z,0.00
2019-05-16T01:09:41.101Z,0.00
2019-05-16T01:10:41.103Z,0.00
2019-05-16T01:11:41.162Z,0.00
2019-05-16T01:12:41.050Z,0.00
2019-05-16T01:13:41.054Z,0.00
2019-05-16T01:14:41.030Z,0.00
2019-05-16T01:15:41.032Z,0.00
2019-05-16T01:16:41.029Z,0.00
2019-05-16T01:17:41.004Z,0.00
2019-05-16T01:18:40.993Z,0.00
2019-05-16T01:19:40.980Z,0.00
2019-05-16T01:20:40.959Z,0.00
2019-05-16T01:21:40.993Z,0.00
2019-05-16T01:22:40.939Z,0.00
2019-05-16T01:23:40.932Z,0.00
2019-05-16T01:24:41.547Z,0.00
2019-05-16T01:25:40.913Z,0.00
2019-05-16T01:26:40.899Z,0.00
2019-05-16T01:27:40.909Z,0.00
2019-05-16T01:28:40.878Z,0.00
2019-05-16T01:29:40.866Z,0.00
2019-05-16T01:30:40.870Z,0.00
2019-05-16T01:31:40.861Z,0.00
2019-05-16T01:32:40.848Z,0.00
2019-05-16T01:33:40.820Z,0.00
2019-05-16T01:34:40.838Z,0.00
2019-05-16T01:35:41.866Z,0.00
2019-05-16T01:36:41.010Z,0.00
2019-05-16T01:37:40.801Z,0.00
2019-05-16T01:38:41.700Z,0.00
2019-05-16T01:39:40.870Z,0.00
2019-05-16T01:40:40.788Z,0.00
2019-05-16T01:41:40.745Z,0.00
2019-05-16T01:42:40.741Z,0.00
2019-05-16T01:43:40.716Z,0.00
2019-05-16T01:44:40.706Z,0.00
2019-05-16T01:45:40.699Z,0.00
2019-05-16T01:46:40.688Z,0.00
2019-05-16T01:47:40.668Z,0.00
2019-05-16T01:48:40.669Z,0.00
2019-05-16T01:49:40.639Z,0.00
2019-05-16T01:50:40.636Z,0.00
2019-05-16T01:51:40.642Z,0.00
2019-05-16T01:52:40.797Z,0.00
2019-05-16T01:53:40.605Z,0.00
2019-05-16T01:54:40.598Z,0.00
2019-05-16T01:55:40.759Z,0.00
2019-05-16T01:56:40.598Z,0.00
2019-05-16T01:57:40.555Z,0.00
2019-05-16T01:58:40.557Z,0.00
2019-05-16T01:59:40.533Z,0.00
2019-05-16T02:00:52.635Z,0.00
2019-05-16T02:01:41.570Z,0.00
2019-05-16T02:02:40.525Z,0.00
2019-05-16T02:03:40.499Z,0.00
2019-05-16T02:04:40.486Z,0.00
2019-05-16T02:05:40.481Z,0.00
2019-05-16T02:06:50.839Z,0.00
2019-05-16T02:07:41.472Z,0.00
2019-05-16T02:08:40.444Z,0.00
2019-05-16T02:09:40.456Z,0.00
2019-05-16T02:10:40.464Z,0.00
2019-05-16T02:11:40.411Z,0.00
2019-05-16T02:12:40.405Z,0.00
2019-05-16T02:13:40.780Z,0.00
2019-05-16T02:14:40.373Z,0.00
2019-05-16T02:15:40.374Z,0.00
2019-05-16T02:16:40.344Z,0.00
2019-05-16T02:17:40.616Z,0.00
2019-05-16T02:18:40.336Z,0.00
2019-05-16T02:19:40.335Z,0.00
2019-05-16T02:20:40.358Z,0.00
2019-05-16T02:21:40.578Z,0.00
2019-05-16T02:22:40.282Z,0.00
2019-05-16T02:23:41.217Z,0.00
2019-05-16T02:24:40.263Z,0.00
2019-05-16T02:25:40.857Z,0.00
2019-05-16T02:26:40.252Z,0.00
2019-05-16T02:27:41.002Z,0.00
2019-05-16T02:28:43.694Z,0.00
2019-05-16T02:29:40.286Z,0.00
2019-05-16T02:30:42.159Z,0.00
2019-05-16T02:31:42.172Z,0.00
2019-05-16T02:32:41.788Z,0.00
2019-05-16T02:33:40.704Z,0.00
2019-05-16T02:34:41.709Z,0.00
2019-05-16T02:35:40.678Z,0.00
2019-05-16T02:36:40.579Z,0.00
2019-05-16T02:37:42.205Z,0.00
2019-05-16T02:38:42.286Z,0.00
2019-05-16T02:39:40.922Z,0.00
2019-05-16T02:40:41.799Z,0.00
2019-05-16T02:41:45.634Z,0.00
2019-05-16T02:42:42.298Z,0.00
2019-05-16T02:43:41.937Z,0.00
2019-05-16T02:44:41.202Z,0.00
2019-05-16T02:45:41.565Z,0.00
2019-05-16T02:46:41.785Z,0.00
2019-05-16T02:47:42.456Z,0.00
2019-05-16T02:48:41.035Z,0.00
2019-05-16T02:49:41.824Z,0.00
2019-05-16T02:50:41.478Z,0.00
2019-05-16T02:51:40.623Z,0.00
2019-05-16T02:52:41.283Z,0.00
2019-05-16T02:53:41.633Z,0.00
2019-05-16T02:54:41.144Z,0.00
2019-05-16T02:55:41.088Z,0.00
2019-05-16T02:56:41.800Z,0.00
2019-05-16T02:57:41.444Z,0.00
2019-05-16T02:58:41.347Z,0.00
2019-05-16T02:59:41.644Z,0.00
2019-05-16T03:00:42.687Z,0.00
2019-05-16T03:01:40.864Z,0.00
2019-05-16T03:02:41.881Z,0.00
2019-05-16T03:03:40.196Z,0.00
2019-05-16T03:04:43.723Z,0.00
2019-05-16T03:05:41.852Z,0.00
2019-05-16T03:06:41.053Z,0.00
2019-05-16T03:07:45.828Z,0.00
2019-05-16T03:08:41.327Z,0.00
2019-05-16T03:09:41.087Z,0.00
2019-05-16T03:10:41.329Z,0.00
2019-05-16T03:11:41.989Z,0.00
2019-05-16T03:12:41.139Z,0.00
2019-05-16T03:13:42.330Z,0.00
2019-05-16T03:14:41.952Z,0.00
2019-05-16T03:15:40.742Z,0.00
2019-05-16T03:16:41.800Z,0.00
2019-05-16T03:17:40.337Z,0.00
2019-05-16T03:18:41.448Z,0.00
2019-05-16T03:19:41.795Z,0.00
2019-05-16T03:20:40.760Z,0.00
2019-05-16T03:21:41.331Z,0.00
2019-05-16T03:22:41.393Z,0.00
2019-05-16T03:23:42.083Z,0.00
2019-05-16T03:24:42.122Z,0.00
2019-05-16T03:25:41.920Z,0.00
2019-05-16T03:26:40.848Z,0.00
2019-05-16T03:27:41.430Z,0.00
2019-05-16T03:28:41.323Z,0.00
2019-05-16T03:29:41.751Z,0.00
2019-05-16T03:30:44.827Z,0.00
2019-05-16T03:31:44.418Z,5.62
2019-05-16T03:32:45.221Z,5.62
2019-05-16T03:33:48.994Z,5.62
2019-05-16T03:34:44.120Z,5.62
2019-05-16T03:35:44.657Z,5.62
2019-05-16T03:36:43.869Z,5.62
2019-05-16T03:37:54.392Z,5.62
2019-05-16T03:38:41.336Z,5.62
2019-05-16T03:39:40.682Z,5.62
2019-05-16T03:40:41.296Z,5.62
2019-05-16T03:41:41.470Z,11.25
2019-05-16T03:42:41.613Z,11.25
2019-05-16T03:43:41.278Z,11.25
2019-05-16T03:44:41.131Z,11.25
2019-05-16T03:45:41.728Z,11.25
2019-05-16T03:46:41.266Z,16.88
2019-05-16T03:47:42.666Z,16.88
2019-05-16T03:48:40.828Z,16.88
2019-05-16T03:49:42.006Z,16.88
2019-05-16T03:50:41.277Z,22.50
2019-05-16T03:51:41.429Z,22.50
2019-05-16T03:52:43.354Z,22.50
2019-05-16T03:53:40.429Z,22.50
2019-05-16T03:54:41.965Z,28.12
2019-05-16T03:55:40.765Z,28.12
2019-05-16T03:56:40.818Z,28.12
2019-05-16T03:57:41.628Z,28.12
2019-05-16T03:58:41.522Z,28.12
2019-05-16T03:59:40.835Z,33.75
2019-05-16T04:00:45.256Z,33.75
2019-05-16T04:01:40.941Z,33.75
2019-05-16T04:02:44.883Z,33.75
2019-05-16T04:03:41.352Z,39.38
2019-05-16T04:04:41.773Z,39.38
2019-05-16T04:05:41.372Z,39.38
2019-05-16T04:06:41.562Z,39.38
2019-05-16T04:07:41.413Z,39.38
2019-05-16T04:08:41.231Z,45.00
2019-05-16T04:09:41.136Z,45.00
2019-05-16T04:10:40.925Z,45.00
2019-05-16T04:11:42.163Z,45.00
2019-05-16T04:12:41.824Z,50.62
2019-05-16T04:13:41.232Z,50.62
2019-05-16T04:14:41.027Z,50.62
2019-05-16T04:15:40.828Z,56.25
2019-05-16T04:16:41.408Z,56.25
2019-05-16T04:17:41.226Z,61.88
2019-05-16T04:18:41.952Z,61.88
2019-05-16T04:19:41.551Z,67.50
2019-05-16T04:20:40.639Z,73.12
2019-05-16T04:21:42.185Z,73.12
2019-05-16T04:22:40.802Z,78.75
2019-05-16T04:23:41.850Z,78.75
2019-05-16T04:24:41.556Z,84.38
2019-05-16T04:25:41.030Z,90.00
2019-05-16T04:26:41.159Z,90.00
2019-05-16T04:27:41.557Z,90.00
2019-05-16T04:28:41.306Z,90.00
2019-05-16T04:29:40.778Z,90.00
2019-05-16T04:30:41.468Z,90.00
2019-05-16T04:31:41.282Z,95.62
2019-05-16T04:32:41.463Z,95.62
2019-05-16T04:33:41.665Z,95.62
2019-05-16T04:34:41.574Z,90.00
2019-05-16T04:35:41.131Z,90.00
2019-05-16T04:36:40.641Z,95.62
2019-05-16T04:37:42.282Z,95.62
2019-05-16T04:38:45.115Z,95.62
2019-05-16T04:39:41.449Z,95.62
2019-05-16T04:40:42.220Z,95.62
2019-05-16T04:41:40.982Z,95.62
2019-05-16T04:42:41.616Z,95.62
2019-05-16T04:43:41.344Z,101.25
2019-05-16T04:44:41.679Z,101.25
2019-05-16T04:45:41.408Z,106.88
2019-05-16T04:46:41.099Z,106.88
2019-05-16T04:47:41.410Z,112.50
2019-05-16T04:48:41.568Z,112.50
2019-05-16T04:49:41.277Z,106.88
2019-05-16T04:50:41.807Z,106.88
2019-05-16T04:51:41.362Z,101.25
2019-05-16T04:52:41.734Z,101.25
2019-05-16T04:53:42.102Z,95.62
2019-05-16T04:54:41.859Z,95.62
2019-05-16T04:55:41.845Z,95.62
2019-05-16T04:56:41.248Z,90.00
2019-05-16T04:57:42.100Z,90.00
2019-05-16T04:58:40.745Z,84.38
2019-05-16T04:59:41.487Z,78.75
2019-05-16T05:00:41.808Z,78.75
2019-05-16T05:01:41.306Z,78.75
2019-05-16T05:02:41.719Z,78.75
2019-05-16T05:03:40.973Z,78.75
2019-05-16T05:04:41.496Z,78.75
2019-05-16T05:05:41.323Z,78.75
2019-05-16T05:06:40.585Z,78.75
2019-05-16T05:07:40.632Z,78.75
2019-05-16T05:08:52.907Z,78.75
2019-05-16T05:09:40.913Z,78.75
2019-05-16T05:10:40.689Z,78.75
2019-05-16T05:11:41.038Z,84.38
2019-05-16T05:12:40.851Z,84.38
2019-05-16T05:13:41.095Z,84.38
2019-05-16T05:14:41.453Z,90.00
2019-05-16T05:15:40.069Z,95.62
2019-05-16T05:16:41.108Z,106.88
2019-05-16T05:17:40.929Z,112.50
2019-05-16T05:18:40.777Z,123.75
2019-05-16T05:19:41.180Z,129.38
2019-05-16T05:20:40.856Z,140.62
2019-05-16T05:21:40.805Z,151.88
2019-05-16T05:22:39.735Z,157.50
2019-05-16T05:23:40.598Z,157.50
2019-05-16T05:24:40.425Z,157.50
2019-05-16T05:25:40.452Z,151.88
2019-05-16T05:26:38.330Z,146.25
2019-05-16T05:27:40.954Z,135.00
2019-05-16T05:28:40.227Z,123.75
2019-05-16T05:29:39.833Z,118.12
2019-05-16T05:30:38.257Z,112.50
2019-05-16T05:31:43.612Z,112.50
2019-05-16T05:32:41.338Z,106.88
2019-05-16T05:33:41.380Z,106.88
2019-05-16T05:34:39.831Z,106.88
2019-05-16T05:35:40.706Z,106.88
2019-05-16T05:36:40.751Z,106.88
2019-05-16T05:37:40.705Z,106.88
2019-05-16T05:38:40.273Z,106.88
2019-05-16T05:39:39.740Z,106.88
2019-05-16T05:40:40.438Z,106.88
2019-05-16T05:41:40.057Z,106.88
2019-05-16T05:42:39.901Z,101.25
2019-05-16T05:43:39.747Z,95.62
2019-05-16T05:44:40.034Z,95.62
2019-05-16T05:45:40.101Z,90.00
2019-05-16T05:46:40.034Z,95.62
2019-05-16T05:47:40.250Z,95.62
2019-05-16T05:48:40.866Z,101.25
2019-05-16T05:49:40.347Z,106.88
2019-05-16T05:50:40.050Z,112.50
2019-05-16T05:51:40.434Z,112.50
2019-05-16T05:52:40.837Z,112.50
2019-05-16T05:53:40.046Z,112.50
2019-05-16T05:54:40.555Z,112.50
2019-05-16T05:55:40.326Z,106.88
2019-05-16T05:56:39.808Z,101.25
2019-05-16T05:57:40.063Z,101.25
2019-05-16T05:58:40.588Z,101.25
2019-05-16T05:59:40.295Z,106.88
2019-05-16T06:00:40.409Z,112.50
2019-05-16T06:01:40.454Z,118.12
2019-05-16T06:02:39.965Z,129.38
2019-05-16T06:03:39.753Z,135.00
2019-05-16T06:04:39.574Z,140.62
2019-05-16T06:05:37.852Z,140.62
2019-05-16T06:06:37.884Z,140.62
2019-05-16T06:07:40.194Z,146.25
2019-05-16T06:08:37.822Z,151.88
2019-05-16T06:09:52.158Z,157.50
2019-05-16T06:10:40.532Z,163.12
2019-05-16T06:11:37.799Z,180.00
2019-05-16T06:12:40.542Z,196.88
2019-05-16T06:13:40.264Z,213.75
2019-05-16T06:14:37.761Z,225.00
2019-05-16T06:15:39.869Z,241.88
2019-05-16T06:16:40.061Z,253.12
2019-05-16T06:17:40.023Z,270.00
2019-05-16T06:18:39.582Z,275.62
2019-05-16T06:19:37.702Z,286.88
2019-05-16T06:20:39.986Z,298.12
2019-05-16T06:21:37.724Z,303.75
2019-05-16T06:22:40.138Z,309.38
2019-05-16T06:23:40.127Z,309.38
2019-05-16T06:24:39.786Z,309.38
2019-05-16T06:25:37.641Z,320.62
2019-05-16T06:26:39.627Z,331.88
2019-05-16T06:27:37.638Z,348.75
2019-05-16T06:28:37.618Z,360.00
2019-05-16T06:29:37.593Z,376.88
2019-05-16T06:30:37.577Z,393.75
2019-05-16T06:31:37.570Z,405.00
2019-05-16T06:32:39.498Z,416.25
2019-05-16T06:33:37.572Z,427.50
2019-05-16T06:34:37.561Z,433.12
2019-05-16T06:35:40.089Z,433.12
2019-05-16T06:36:39.971Z,433.12
2019-05-16T06:37:37.509Z,427.50
2019-05-16T06:38:37.500Z,433.12
2019-05-16T06:39:41.840Z,450.00
2019-05-16T06:40:40.166Z,461.25
2019-05-16T06:41:39.646Z,478.12
2019-05-16T06:42:40.044Z,489.38
2019-05-16T06:43:39.863Z,511.88
2019-05-16T06:44:39.969Z,523.12
2019-05-16T06:45:40.070Z,545.62
2019-05-16T06:46:44.368Z,562.50
2019-05-16T06:47:39.714Z,585.00
2019-05-16T06:48:39.677Z,601.88
2019-05-16T06:49:37.374Z,630.00
2019-05-16T06:50:37.368Z,635.62
2019-05-16T06:51:39.613Z,646.88
2019-05-16T06:52:37.350Z,663.75
2019-05-16T06:53:37.325Z,663.75
2019-05-16T06:54:37.328Z,669.38
2019-05-16T06:55:37.299Z,680.62
2019-05-16T06:56:39.900Z,703.12
2019-05-16T06:57:37.299Z,736.88
2019-05-16T06:58:45.607Z,781.88
2019-05-16T06:59:40.359Z,826.88
2019-05-16T07:00:37.249Z,855.00
2019-05-16T07:01:37.236Z,860.62
2019-05-16T07:02:37.238Z,871.88
2019-05-16T07:03:37.253Z,883.12
2019-05-16T07:04:39.710Z,877.50
2019-05-16T07:05:37.199Z,866.25
2019-05-16T07:06:51.929Z,838.12
2019-05-16T07:07:40.179Z,810.00
2019-05-16T07:08:37.168Z,793.12
2019-05-16T07:09:37.167Z,781.88
2019-05-16T07:10:37.146Z,787.50
2019-05-16T07:11:37.148Z,787.50
2019-05-16T07:12:37.129Z,804.38
2019-05-16T07:13:37.105Z,815.62
2019-05-16T07:14:37.152Z,826.88
2019-05-16T07:15:37.085Z,838.12
2019-05-16T07:16:37.100Z,855.00
2019-05-16T07:17:37.065Z,866.25
2019-05-16T07:18:37.059Z,843.75
2019-05-16T07:19:37.067Z,838.12
2019-05-16T07:20:37.045Z,826.88
2019-05-16T07:21:37.076Z,815.62
2019-05-16T07:22:37.005Z,810.00
2019-05-16T07:23:37.001Z,804.38
2019-05-16T07:24:36.992Z,787.50
2019-05-16T07:25:36.988Z,781.88
2019-05-16T07:26:36.977Z,793.12
2019-05-16T07:27:36.995Z,798.75
2019-05-16T07:28:36.973Z,810.00
2019-05-16T07:29:36.968Z,810.00
2019-05-16T07:30:36.957Z,821.25
2019-05-16T07:31:36.919Z,821.25
2019-05-16T07:32:36.924Z,821.25
2019-05-16T07:33:36.890Z,821.25
2019-05-16T07:34:36.885Z,815.62
2019-05-16T07:35:36.898Z,798.75
2019-05-16T07:36:36.864Z,787.50
2019-05-16T07:37:36.863Z,781.88
2019-05-16T07:38:36.868Z,793.12
2019-05-16T07:39:38.688Z,810.00
2019-05-16T07:40:36.817Z,832.50
2019-05-16T07:41:36.836Z,855.00
2019-05-16T07:42:36.798Z,855.00
2019-05-16T07:43:36.805Z,843.75
2019-05-16T07:44:36.790Z,832.50
2019-05-16T07:45:38.514Z,815.62
2019-05-16T07:46:36.756Z,810.00
2019-05-16T07:47:36.736Z,787.50
2019-05-16T07:48:36.732Z,776.25
2019-05-16T07:49:36.757Z,736.88
2019-05-16T07:50:36.716Z,742.50
2019-05-16T07:51:36.723Z,804.38
2019-05-16T07:52:36.863Z,832.50
2019-05-16T07:53:36.687Z,843.75
2019-05-16T07:54:36.672Z,849.38
2019-05-16T07:55:36.648Z,855.00
2019-05-16T07:56:36.645Z,866.25
2019-05-16T07:57:36.635Z,838.12
2019-05-16T07:58:36.610Z,810.00
2019-05-16T07:59:36.629Z,798.75
2019-05-16T08:00:49.467Z,781.88
2019-05-16T08:01:39.722Z,731.25
2019-05-16T08:02:36.580Z,691.88
2019-05-16T08:03:36.597Z,675.00
2019-05-16T08:04:36.682Z,686.25
2019-05-16T08:05:36.692Z,686.25
2019-05-16T08:06:36.523Z,697.50
2019-05-16T08:07:36.526Z,680.62
2019-05-16T08:08:36.513Z,646.88
2019-05-16T08:09:36.536Z,607.50
2019-05-16T08:10:41.702Z,624.38
2019-05-16T08:11:37.466Z,630.00
2019-05-16T08:12:36.481Z,635.62
2019-05-16T08:13:36.466Z,641.25
2019-05-16T08:14:36.477Z,663.75
2019-05-16T08:15:36.425Z,703.12
2019-05-16T08:16:36.406Z,736.88
2019-05-16T08:17:36.409Z,765.00
2019-05-16T08:18:36.407Z,759.38
2019-05-16T08:19:36.429Z,731.25
2019-05-16T08:20:36.407Z,675.00
2019-05-16T08:21:36.381Z,646.88
2019-05-16T08:22:36.386Z,613.12
2019-05-16T08:23:36.344Z,590.62
2019-05-16T08:24:36.396Z,590.62
2019-05-16T08:25:36.337Z,618.75
2019-05-16T08:26:41.978Z,652.50
2019-05-16T08:27:37.313Z,675.00
2019-05-16T08:28:36.275Z,691.88
2019-05-16T08:29:36.283Z,703.12
2019-05-16T08:30:36.279Z,714.38
2019-05-16T08:31:36.280Z,714.38
2019-05-16T08:32:36.248Z,714.38
2019-05-16T08:33:36.217Z,725.62
2019-05-16T08:34:36.226Z,725.62
2019-05-16T08:35:36.199Z,742.50
2019-05-16T08:36:36.224Z,748.12
2019-05-16T08:37:42.528Z,770.62
2019-05-16T08:38:37.165Z,810.00
2019-05-16T08:39:36.190Z,826.88
2019-05-16T08:41:01.130Z,798.75
2019-05-16T08:41:37.166Z,793.12
2019-05-16T08:42:36.128Z,781.88
2019-05-16T08:43:36.118Z,793.12
2019-05-16T08:44:36.138Z,821.25
2019-05-16T08:45:36.113Z,821.25
2019-05-16T08:46:36.105Z,821.25
2019-05-16T08:47:36.145Z,832.50
2019-05-16T08:48:36.069Z,877.50
2019-05-16T08:49:36.056Z,933.75
2019-05-16T08:50:36.955Z,1023.75
2019-05-16T08:51:36.055Z,1091.25
2019-05-16T08:52:36.030Z,1130.62
2019-05-16T08:53:36.009Z,1181.25
2019-05-16T08:54:36.007Z,1310.62
2019-05-16T08:55:35.989Z,1350.00
2019-05-16T08:56:35.985Z,1417.50
2019-05-16T08:57:35.987Z,1440.00
2019-05-16T08:58:35.966Z,1496.25
2019-05-16T08:59:35.949Z,1468.12
2019-05-16T09:00:35.982Z,1451.25
2019-05-16T09:01:35.947Z,1485.00
2019-05-16T09:02:36.960Z,1597.50
2019-05-16T09:03:35.927Z,1912.50
2019-05-16T09:04:35.902Z,2497.50
2019-05-16T09:05:35.877Z,2154.38
2019-05-16T09:06:35.870Z,1749.38
2019-05-16T09:07:35.870Z,2975.62
2019-05-16T09:08:35.862Z,1816.88
2019-05-16T09:09:44.151Z,1580.62
2019-05-16T09:10:59.058Z,1704.38
2019-05-16T09:11:43.980Z,1631.25
2019-05-16T09:12:37.237Z,1546.88
2019-05-16T09:13:37.017Z,1603.12
2019-05-16T09:14:38.964Z,1811.25
2019-05-16T09:15:38.998Z,1861.88
2019-05-16T09:16:37.204Z,1473.75
2019-05-16T09:17:38.410Z,1569.38
2019-05-16T09:18:41.238Z,1535.62
2019-05-16T09:19:36.921Z,1530.00
2019-05-16T09:20:37.449Z,1710.00
2019-05-16T09:21:38.382Z,1687.50
2019-05-16T09:22:37.763Z,1968.75
2019-05-16T09:23:38.284Z,3161.25
2019-05-16T09:24:37.721Z,3161.25
2019-05-16T09:25:36.889Z,1575.00
2019-05-16T09:26:38.125Z,1822.50
2019-05-16T09:27:38.114Z,1496.25
2019-05-16T09:28:38.995Z,1625.62
2019-05-16T09:29:36.630Z,1597.50
2019-05-16T09:30:37.022Z,4123.12
2019-05-16T09:31:38.593Z,1704.38
2019-05-16T09:32:36.965Z,1738.12
2019-05-16T09:33:37.552Z,1974.38
2019-05-16T09:34:37.825Z,2559.38
2019-05-16T09:35:36.997Z,1833.75
2019-05-16T09:36:37.103Z,1552.50
2019-05-16T09:37:37.600Z,1665.00
2019-05-16T09:38:38.297Z,2030.62
2019-05-16T09:39:37.145Z,2261.25
2019-05-16T09:40:38.704Z,1794.38
2019-05-16T09:41:49.757Z,1496.25
2019-05-16T09:42:37.242Z,1451.25
2019-05-16T09:43:38.532Z,1265.62
2019-05-16T09:44:36.979Z,1344.38
2019-05-16T09:45:37.870Z,1417.50
2019-05-16T09:46:37.477Z,1552.50
2019-05-16T09:47:38.602Z,1546.88
2019-05-16T09:48:38.014Z,1282.50
2019-05-16T09:49:37.106Z,1164.38
2019-05-16T09:50:37.753Z,1496.25
2019-05-16T09:51:37.603Z,1721.25
2019-05-16T09:52:36.417Z,2255.62
2019-05-16T09:53:36.628Z,2964.38
2019-05-16T09:54:37.704Z,2278.12
2019-05-16T09:55:37.197Z,2559.38
2019-05-16T09:56:36.955Z,2323.12
2019-05-16T09:57:37.671Z,1861.88
2019-05-16T09:58:37.241Z,1946.25
2019-05-16T09:59:37.077Z,1496.25
2019-05-16T10:00:37.379Z,1558.12
2019-05-16T10:01:37.049Z,1591.88
2019-05-16T10:02:36.787Z,1687.50
2019-05-16T10:03:37.285Z,1631.25
2019-05-16T10:04:36.842Z,1524.38
2019-05-16T10:05:37.174Z,1670.62
2019-05-16T10:06:37.206Z,1828.12
2019-05-16T10:07:38.523Z,1794.38
2019-05-16T10:08:37.307Z,1749.38
2019-05-16T10:09:42.047Z,1794.38
2019-05-16T10:10:36.977Z,1946.25
2019-05-16T10:11:40.897Z,1861.88
2019-05-16T10:12:37.136Z,1828.12
2019-05-16T10:13:37.314Z,1653.75
2019-05-16T10:14:37.651Z,1771.88
2019-05-16T10:15:37.614Z,1760.62
2019-05-16T10:16:36.702Z,1771.88
2019-05-16T10:17:37.069Z,1805.62
2019-05-16T10:18:36.970Z,1794.38
2019-05-16T10:19:36.762Z,1665.00
2019-05-16T10:20:36.719Z,1620.00
2019-05-16T10:21:37.224Z,1552.50
2019-05-16T10:22:37.213Z,1608.75
2019-05-16T10:23:36.452Z,1693.12
2019-05-16T10:24:37.423Z,1760.62
2019-05-16T10:25:37.541Z,1726.88
2019-05-16T10:26:37.066Z,1670.62
2019-05-16T10:27:36.763Z,1648.12
2019-05-16T10:28:38.156Z,1681.88
2019-05-16T10:29:37.556Z,1771.88
2019-05-16T10:30:37.488Z,1721.25
2019-05-16T10:31:44.794Z,1665.00
2019-05-16T10:32:36.509Z,1653.75
2019-05-16T10:33:38.649Z,1631.25
2019-05-16T10:34:36.962Z,1580.62
2019-05-16T10:35:37.222Z,1552.50
2019-05-16T10:36:37.159Z,1546.88
2019-05-16T10:37:37.399Z,1428.75
2019-05-16T10:38:37.375Z,1338.75
2019-05-16T10:39:37.280Z,1293.75
2019-05-16T10:40:36.924Z,1271.25
2019-05-16T10:41:36.942Z,1231.88
2019-05-16T10:42:37.675Z,1276.88
2019-05-16T10:43:36.929Z,1361.25
2019-05-16T10:44:38.209Z,1383.75
2019-05-16T10:45:36.737Z,1406.25
2019-05-16T10:46:37.459Z,1338.75
2019-05-16T10:47:36.926Z,1192.50
2019-05-16T10:48:37.373Z,1125.00
2019-05-16T10:49:38.756Z,1085.62
2019-05-16T10:50:36.944Z,1074.38
2019-05-16T10:51:34.770Z,1096.88
2019-05-16T10:52:36.633Z,1158.75
2019-05-16T10:54:00.497Z,1164.38
2019-05-16T10:54:37.012Z,1192.50
2019-05-16T10:55:36.763Z,1271.25
2019-05-16T10:56:34.751Z,1395.00
2019-05-16T10:57:35.248Z,1473.75
2019-05-16T10:58:41.652Z,1715.62
2019-05-16T11:00:00.439Z,1485.00
2019-05-16T11:01:05.018Z,1552.50
2019-05-16T11:01:36.725Z,1935.00
2019-05-16T11:02:36.972Z,1884.38
2019-05-16T11:03:34.585Z,1777.50
2019-05-16T11:04:52.857Z,1642.50
2019-05-16T11:05:38.846Z,1597.50
2019-05-16T11:06:37.098Z,1501.88
2019-05-16T11:07:37.102Z,1406.25
2019-05-16T11:08:37.209Z,1276.88
2019-05-16T11:09:39.145Z,1288.12
2019-05-16T11:10:37.162Z,1395.00
2019-05-16T11:11:36.633Z,1513.12
2019-05-16T11:12:47.457Z,1456.88
2019-05-16T11:13:37.034Z,1220.62
2019-05-16T11:14:36.892Z,1265.62
2019-05-16T11:15:34.476Z,1411.88
2019-05-16T11:16:36.685Z,1485.00
2019-05-16T11:17:34.477Z,1383.75
2019-05-16T11:18:34.437Z,1355.62
2019-05-16T11:19:37.096Z,1288.12
2019-05-16T11:20:37.158Z,1147.50
2019-05-16T11:21:34.407Z,1091.25
2019-05-16T11:22:36.998Z,1164.38
2019-05-16T11:23:36.572Z,1299.38
2019-05-16T11:24:34.414Z,1276.88
2019-05-16T11:25:36.493Z,1170.00
2019-05-16T11:26:36.637Z,1125.00
2019-05-16T11:27:34.343Z,1125.00
2019-05-16T11:28:36.788Z,1175.62
2019-05-16T11:29:36.485Z,1203.75
2019-05-16T11:30:37.320Z,1170.00
2019-05-16T11:31:34.307Z,1170.00
2019-05-16T11:32:34.290Z,1158.75
2019-05-16T11:33:36.845Z,1260.00
2019-05-16T11:34:34.303Z,1383.75
2019-05-16T11:35:34.242Z,1400.62
2019-05-16T11:36:34.245Z,1372.50
2019-05-16T11:37:34.222Z,1468.12
2019-05-16T11:38:34.221Z,1760.62
2019-05-16T11:39:34.201Z,2143.12
2019-05-16T11:40:34.219Z,2266.88
2019-05-16T11:41:34.175Z,1935.00
2019-05-16T11:42:34.190Z,1918.12
2019-05-16T11:43:36.549Z,2098.12
2019-05-16T11:44:34.160Z,2176.88
2019-05-16T11:45:36.595Z,2081.25
2019-05-16T11:46:37.237Z,1845.00
2019-05-16T11:47:36.313Z,1816.88
2019-05-16T11:48:34.116Z,1968.75
2019-05-16T11:49:34.116Z,2165.62
2019-05-16T11:50:37.026Z,2773.12
2019-05-16T11:51:34.072Z,1546.88
2019-05-16T11:52:34.060Z,1395.00
2019-05-16T11:53:34.045Z,1361.25
2019-05-16T11:54:34.047Z,1468.12
2019-05-16T11:55:37.015Z,1580.62
2019-05-16T11:56:36.905Z,1676.25
2019-05-16T11:57:34.013Z,1687.50
2019-05-16T11:58:34.012Z,1816.88
2019-05-16T11:59:33.978Z,1940.62
2019-05-16T12:00:33.988Z,1940.62
2019-05-16T12:01:36.819Z,1845.00
2019-05-16T12:02:37.675Z,1681.88
2019-05-16T12:03:37.338Z,1620.00
2019-05-16T12:04:33.961Z,1681.88
2019-05-16T12:05:33.922Z,1693.12
2019-05-16T12:06:33.951Z,1766.25
2019-05-16T12:07:35.085Z,1434.38
2019-05-16T12:08:33.889Z,1271.25
2019-05-16T12:09:37.233Z,1119.38
2019-05-16T12:10:36.288Z,1012.50
2019-05-16T12:11:33.896Z,888.75
2019-05-16T12:12:33.861Z,810.00
2019-05-16T12:13:33.826Z,748.12
2019-05-16T12:14:33.853Z,686.25
2019-05-16T12:15:33.807Z,630.00
2019-05-16T12:16:33.836Z,618.75
2019-05-16T12:17:33.806Z,590.62
2019-05-16T12:18:33.780Z,579.38
2019-05-16T12:19:37.757Z,585.00
2019-05-16T12:20:34.770Z,579.38
2019-05-16T12:21:33.748Z,613.12
2019-05-16T12:22:33.761Z,618.75
2019-05-16T12:23:33.761Z,607.50
2019-05-16T12:24:38.801Z,585.00
2019-05-16T12:25:36.723Z,590.62
2019-05-16T12:26:33.755Z,607.50
2019-05-16T12:27:34.153Z,618.75
2019-05-16T12:28:33.691Z,630.00
2019-05-16T12:29:33.702Z,652.50
2019-05-16T12:30:33.661Z,646.88
2019-05-16T12:31:33.662Z,652.50
2019-05-16T12:32:33.633Z,703.12
2019-05-16T12:33:33.609Z,753.75
2019-05-16T12:34:33.647Z,793.12
2019-05-16T12:35:33.622Z,871.88
2019-05-16T12:36:33.576Z,967.50
2019-05-16T12:37:33.593Z,973.12
2019-05-16T12:38:33.563Z,956.25